createdAt,value
2018-04-24T00:00:43.282Z,4.90
2018-04-24T00:01:43.210Z,4.70
2018-04-24T00:02:43.136Z,4.30
2018-04-24T00:03:43.063Z,4.50
2018-04-24T00:04:42.989Z,4.50
2018-04-24T00:05:42.916Z,5.40
2018-04-24T00:06:42.841Z,4.60
2018-04-24T00:07:42.769Z,5.10
2018-04-24T00:08:42.695Z,4.60
2018-04-24T00:09:42.623Z,5.60
2018-04-24T00:10:42.548Z,4.70
2018-04-24T00:11:42.475Z,4.60
2018-04-24T00:12:42.402Z,4.50
2018-04-24T00:13:42.332Z,4.90
2018-04-24T00:14:42.258Z,4.60
2018-04-24T00:15:42.182Z,4.60
2018-04-24T00:16:42.109Z,4.80
2018-04-24T00:17:42.035Z,4.60
2018-04-24T00:18:41.961Z,4.60
2018-04-24T00:19:41.889Z,4.60
2018-04-24T00:20:41.816Z,5.20
2018-04-24T00:21:41.741Z,4.80
2018-04-24T00:22:41.668Z,4.30
2018-04-24T00:23:41.595Z,5.00
2018-04-24T00:24:41.521Z,4.80
2018-04-24T00:25:41.448Z,4.30
2018-04-24T00:26:41.375Z,4.70
2018-04-24T00:27:41.301Z,5.00
2018-04-24T00:28:41.228Z,4.80
2018-04-24T00:29:41.154Z,5.00
2018-04-24T00:30:41.082Z,4.20
2018-04-24T00:31:41.008Z,4.80
2018-04-24T00:32:40.934Z,4.70
2018-04-24T00:33:40.861Z,4.60
2018-04-24T00:34:40.787Z,5.20
2018-04-24T00:35:40.714Z,4.80
2018-04-24T00:36:40.640Z,5.00
2018-04-24T00:37:40.567Z,5.00
2018-04-24T00:38:40.496Z,4.80
2018-04-24T00:39:40.420Z,5.10
2018-04-24T00:40:40.347Z,4.20
2018-04-24T00:41:40.272Z,4.90
2018-04-24T00:42:40.199Z,5.00
2018-04-24T00:43:40.126Z,4.90
2018-04-24T00:44:40.055Z,4.50
2018-04-24T00:45:39.978Z,5.10
2018-04-24T00:46:39.904Z,4.50
2018-04-24T00:47:39.833Z,5.60
2018-04-24T00:48:39.757Z,4.40
2018-04-24T00:49:39.683Z,4.40
2018-04-24T00:50:39.610Z,4.90
2018-04-24T00:51:39.535Z,4.60
2018-04-24T00:52:39.462Z,5.00
2018-04-24T00:53:39.392Z,5.10
2018-04-24T00:54:39.315Z,5.40
2018-04-24T00:55:39.241Z,5.10
2018-04-24T00:56:39.166Z,5.80
2018-04-24T00:57:39.094Z,5.20
2018-04-24T00:58:39.023Z,5.10
2018-04-24T00:59:38.945Z,5.00
2018-04-24T01:00:38.871Z,5.50
2018-04-24T01:01:38.798Z,5.60
2018-04-24T01:02:38.724Z,5.70
2018-04-24T01:03:38.649Z,5.30
2018-04-24T01:04:38.577Z,5.90
2018-04-24T01:05:38.503Z,5.90
2018-04-24T01:06:38.464Z,5.40
2018-04-24T01:07:38.355Z,4.80
2018-04-24T01:08:38.280Z,5.10
2018-04-24T01:09:38.207Z,6.20
2018-04-24T01:10:38.132Z,5.10
2018-04-24T01:11:38.059Z,5.60
2018-04-24T01:12:37.985Z,5.60
2018-04-24T01:13:37.911Z,5.60
2018-04-24T01:14:37.839Z,5.00
2018-04-24T01:15:37.763Z,5.60
2018-04-24T01:16:37.690Z,5.70
2018-04-24T01:17:37.618Z,4.70
2018-04-24T01:18:37.542Z,5.40
2018-04-24T01:19:37.468Z,5.30
2018-04-24T01:20:37.395Z,5.40
2018-04-24T01:21:37.319Z,5.20
2018-04-24T01:22:37.244Z,5.30
2018-04-24T01:23:37.170Z,5.40
2018-04-24T01:24:37.097Z,5.00
2018-04-24T01:25:37.022Z,4.90
2018-04-24T01:26:36.947Z,5.00
2018-04-24T01:27:36.874Z,4.90
2018-04-24T01:28:36.800Z,5.60
2018-04-24T01:29:36.725Z,5.20
2018-04-24T01:30:36.651Z,5.20
2018-04-24T01:31:36.578Z,5.10
2018-04-24T01:32:36.504Z,5.30
2018-04-24T01:33:36.428Z,4.90
2018-04-24T01:34:36.356Z,4.90
2018-04-24T01:35:36.282Z,4.90
2018-04-24T01:36:36.206Z,4.90
2018-04-24T01:37:36.132Z,4.80
2018-04-24T01:38:36.057Z,5.40
2018-04-24T01:39:35.983Z,4.80
2018-04-24T01:40:35.909Z,4.50
2018-04-24T01:41:35.833Z,5.00
2018-04-24T01:42:35.760Z,4.60
2018-04-24T01:43:35.685Z,4.50
2018-04-24T01:44:35.615Z,5.30
2018-04-24T01:45:35.540Z,5.50
2018-04-24T01:46:35.462Z,5.00
2018-04-24T01:47:35.389Z,4.40
2018-04-24T01:48:35.315Z,4.80
2018-04-24T01:49:35.240Z,5.20
2018-04-24T01:50:35.164Z,4.90
2018-04-24T01:51:35.090Z,4.70
2018-04-24T01:52:35.016Z,5.00
2018-04-24T01:53:34.942Z,4.80
2018-04-24T01:54:34.866Z,4.90
2018-04-24T01:55:34.793Z,4.80
2018-04-24T01:56:34.719Z,5.20
2018-04-24T01:57:34.644Z,4.60
2018-04-24T01:58:34.570Z,5.50
2018-04-24T01:59:34.500Z,4.70
2018-04-24T02:00:34.420Z,5.10
2018-04-24T02:01:34.346Z,5.60
2018-04-24T02:02:34.271Z,5.10
2018-04-24T02:03:34.198Z,4.90
2018-04-24T02:04:34.123Z,4.50
2018-04-24T02:05:34.048Z,4.80
2018-04-24T02:06:33.977Z,5.00
2018-04-24T02:07:33.899Z,5.00
2018-04-24T02:08:33.826Z,4.80
2018-04-24T02:09:33.749Z,4.80
2018-04-24T02:10:33.680Z,5.00
2018-04-24T02:11:33.601Z,5.30
2018-04-24T02:12:33.528Z,5.60
2018-04-24T02:13:33.452Z,5.10
2018-04-24T02:14:33.378Z,4.90
2018-04-24T02:15:33.306Z,5.10
2018-04-24T02:16:33.228Z,5.20
2018-04-24T02:17:33.153Z,5.00
2018-04-24T02:18:33.079Z,5.20
2018-04-24T02:19:33.004Z,5.00
2018-04-24T02:20:32.929Z,5.00
2018-04-24T02:21:32.858Z,4.80
2018-04-24T02:22:32.784Z,4.60
2018-04-24T02:23:32.706Z,4.30
2018-04-24T02:24:32.631Z,5.30
2018-04-24T02:25:32.558Z,5.00
2018-04-24T02:26:32.482Z,5.10
2018-04-24T02:27:32.408Z,5.90
2018-04-24T02:28:32.332Z,5.60
2018-04-24T02:29:32.256Z,5.80
2018-04-24T02:30:32.183Z,5.50
2018-04-24T02:31:32.109Z,5.10
2018-04-24T02:32:32.034Z,5.40
2018-04-24T02:33:31.967Z,5.40
2018-04-24T02:34:31.885Z,5.20
2018-04-24T02:35:31.812Z,5.40
2018-04-24T02:36:31.735Z,5.30
2018-04-24T02:37:31.659Z,6.10
2018-04-24T02:38:31.585Z,5.50
2018-04-24T02:39:31.513Z,5.20
2018-04-24T02:40:31.506Z,5.40
2018-04-24T02:41:31.361Z,5.30
2018-04-24T02:42:31.287Z,5.20
2018-04-24T02:43:31.218Z,5.60
2018-04-24T02:44:31.138Z,5.40
2018-04-24T02:45:31.063Z,4.90
2018-04-24T02:46:30.987Z,5.10
2018-04-24T02:47:30.913Z,5.30
2018-04-24T02:48:30.843Z,5.80
2018-04-24T02:49:30.763Z,5.50
2018-04-24T02:50:30.688Z,5.30
2018-04-24T02:51:30.619Z,5.70
2018-04-24T02:52:30.539Z,5.80
2018-04-24T02:53:30.464Z,4.90
2018-04-24T02:54:30.389Z,5.50
2018-04-24T02:55:30.315Z,5.80
2018-04-24T02:56:30.238Z,6.10
2018-04-24T02:57:30.164Z,6.00
2018-04-24T02:58:30.089Z,7.00
2018-04-24T02:59:30.015Z,7.00
2018-04-24T03:00:29.940Z,6.70
2018-04-24T03:01:29.864Z,6.30
2018-04-24T03:02:29.789Z,6.30
2018-04-24T03:03:29.718Z,6.80
2018-04-24T03:04:29.640Z,6.40
2018-04-24T03:05:29.565Z,6.80
2018-04-24T03:06:29.489Z,6.30
2018-04-24T03:07:29.415Z,5.90
2018-04-24T03:08:29.341Z,5.70
2018-04-24T03:09:29.268Z,6.80
2018-04-24T03:10:29.191Z,6.50
2018-04-24T03:11:29.119Z,6.40
2018-04-24T03:12:29.042Z,6.30
2018-04-24T03:13:28.969Z,6.70
2018-04-24T03:14:28.892Z,6.60
2018-04-24T03:15:28.820Z,6.60
2018-04-24T03:16:28.742Z,6.40
2018-04-24T03:17:28.667Z,6.90
2018-04-24T03:18:28.593Z,6.90
2018-04-24T03:19:28.518Z,6.60
2018-04-24T03:20:28.442Z,6.60
2018-04-24T03:21:28.370Z,6.80
2018-04-24T03:22:28.292Z,6.80
2018-04-24T03:23:28.218Z,6.20
2018-04-24T03:24:28.144Z,6.70
2018-04-24T03:25:28.069Z,6.90
2018-04-24T03:26:27.996Z,6.80
2018-04-24T03:27:27.919Z,6.10
2018-04-24T03:28:27.844Z,7.80
2018-04-24T03:29:27.769Z,6.80
2018-04-24T03:30:27.699Z,6.70
2018-04-24T03:31:27.620Z,6.50
2018-04-24T03:32:27.547Z,6.20
2018-04-24T03:33:27.471Z,6.30
2018-04-24T03:34:27.397Z,5.80
2018-04-24T03:35:27.321Z,6.30
2018-04-24T03:36:27.249Z,7.20
2018-04-24T03:37:27.173Z,6.10
2018-04-24T03:38:27.098Z,6.80
2018-04-24T03:39:27.022Z,6.10
2018-04-24T03:40:26.948Z,6.70
2018-04-24T03:41:26.872Z,6.40
2018-04-24T03:42:26.797Z,6.10
2018-04-24T03:43:26.724Z,6.20
2018-04-24T03:44:26.648Z,6.10
2018-04-24T03:45:26.572Z,6.70
2018-04-24T03:46:26.499Z,6.10
2018-04-24T03:47:26.424Z,6.30
2018-04-24T03:48:26.352Z,5.70
2018-04-24T03:49:26.275Z,6.50
2018-04-24T03:50:26.198Z,6.80
2018-04-24T03:51:26.123Z,5.80
2018-04-24T03:52:26.049Z,6.50
2018-04-24T03:53:25.975Z,6.00
2018-04-24T03:54:25.898Z,5.60
2018-04-24T03:55:25.824Z,6.10
2018-04-24T03:56:25.750Z,5.60
2018-04-24T03:57:25.673Z,5.80
2018-04-24T03:58:25.598Z,6.00
2018-04-24T03:59:25.523Z,5.50
2018-04-24T04:00:25.449Z,5.30
2018-04-24T04:01:25.374Z,5.70
2018-04-24T04:02:25.297Z,5.90
2018-04-24T04:03:25.223Z,5.60
2018-04-24T04:04:25.148Z,5.00
2018-04-24T04:05:25.072Z,5.70
2018-04-24T04:06:24.997Z,5.10
2018-04-24T04:07:24.922Z,5.70
2018-04-24T04:08:24.847Z,5.90
2018-04-24T04:09:24.786Z,5.90
2018-04-24T04:10:24.696Z,5.20
2018-04-24T04:11:24.626Z,5.90
2018-04-24T04:12:24.546Z,5.00
2018-04-24T04:13:24.475Z,4.90
2018-04-24T04:14:24.396Z,5.60
2018-04-24T04:15:24.320Z,5.90
2018-04-24T04:16:24.245Z,5.30
2018-04-24T04:17:24.168Z,5.50
2018-04-24T04:18:24.093Z,4.80
2018-04-24T04:19:24.018Z,5.30
2018-04-24T04:20:23.943Z,5.10
2018-04-24T04:21:23.869Z,5.10
2018-04-24T04:22:23.835Z,5.70
2018-04-24T04:23:23.718Z,5.60
2018-04-24T04:24:23.643Z,4.70
2018-04-24T04:25:23.571Z,5.00
2018-04-24T04:26:23.491Z,5.50
2018-04-24T04:27:23.417Z,5.80
2018-04-24T04:28:23.340Z,5.40
2018-04-24T04:29:23.268Z,5.10
2018-04-24T04:30:23.188Z,4.60
2018-04-24T04:31:23.116Z,5.00
2018-04-24T04:32:23.039Z,4.70
2018-04-24T04:33:22.963Z,5.20
2018-04-24T04:34:22.890Z,5.30
2018-04-24T04:35:22.813Z,5.80
2018-04-24T04:36:22.742Z,5.30
2018-04-24T04:37:22.661Z,5.40
2018-04-24T04:38:22.588Z,5.50
2018-04-24T04:39:22.513Z,5.40
2018-04-24T04:40:22.437Z,6.00
2018-04-24T04:41:22.363Z,4.70
2018-04-24T04:42:22.286Z,5.30
2018-04-24T04:43:22.211Z,5.10
2018-04-24T04:44:22.143Z,5.40
2018-04-24T04:45:22.060Z,5.20
2018-04-24T04:46:21.986Z,5.20
2018-04-24T04:47:21.911Z,5.50
2018-04-24T04:48:21.836Z,5.70
2018-04-24T04:49:21.760Z,5.30
2018-04-24T04:50:21.686Z,5.70
2018-04-24T04:51:21.610Z,5.10
2018-04-24T04:52:21.535Z,5.30
2018-04-24T04:53:21.457Z,4.90
2018-04-24T04:54:21.384Z,4.90
2018-04-24T04:55:21.309Z,5.30
2018-04-24T04:56:21.237Z,5.40
2018-04-24T04:57:21.158Z,5.20
2018-04-24T04:58:21.082Z,5.30
2018-04-24T04:59:21.007Z,5.20
2018-04-24T05:00:20.933Z,5.70
2018-04-24T05:01:20.855Z,5.60
2018-04-24T05:02:20.781Z,5.30
2018-04-24T05:03:20.706Z,5.30
2018-04-24T05:04:20.630Z,5.80
2018-04-24T05:05:20.635Z,5.90
2018-04-24T05:06:20.480Z,5.20
2018-04-24T05:07:20.404Z,5.40
2018-04-24T05:08:20.329Z,5.80
2018-04-24T05:09:20.253Z,5.40
2018-04-24T05:10:20.178Z,5.40
2018-04-24T05:11:20.104Z,5.90
2018-04-24T05:12:20.029Z,6.00
2018-04-24T05:13:19.951Z,5.60
2018-04-24T05:14:19.877Z,6.10
2018-04-24T05:15:19.802Z,6.20
2018-04-24T05:16:20.026Z,5.30
2018-04-24T05:17:19.650Z,5.40
2018-04-24T05:18:19.575Z,5.40
2018-04-24T05:19:19.502Z,6.00
2018-04-24T05:20:19.425Z,5.70
2018-04-24T05:21:19.349Z,6.20
2018-04-24T05:22:19.275Z,6.10
2018-04-24T05:23:19.200Z,6.20
2018-04-24T05:24:19.126Z,6.20
2018-04-24T05:25:19.050Z,5.60
2018-04-24T05:26:18.975Z,5.50
2018-04-24T05:27:18.901Z,6.00
2018-04-24T05:28:18.827Z,5.50
2018-04-24T05:29:18.752Z,6.00
2018-04-24T05:30:18.678Z,5.60
2018-04-24T05:31:18.606Z,6.00
2018-04-24T05:32:18.528Z,6.20
2018-04-24T05:33:18.456Z,6.20
2018-04-24T05:34:18.379Z,6.20
2018-04-24T05:35:18.304Z,6.10
2018-04-24T05:36:18.231Z,5.40
2018-04-24T05:37:18.155Z,5.10
2018-04-24T05:38:18.080Z,5.30
2018-04-24T05:39:18.007Z,6.00
2018-04-24T05:40:17.932Z,5.10
2018-04-24T05:41:17.858Z,5.80
2018-04-24T05:42:17.784Z,6.10
2018-04-24T05:43:17.710Z,5.70
2018-04-24T05:44:17.634Z,4.90
2018-04-24T05:45:17.630Z,5.50
2018-04-24T05:46:17.486Z,5.00
2018-04-24T05:47:17.411Z,5.20
2018-04-24T05:48:17.340Z,5.60
2018-04-24T05:49:17.263Z,5.40
2018-04-24T05:50:17.189Z,5.50
2018-04-24T05:51:17.113Z,5.10
2018-04-24T05:52:17.101Z,5.40
2018-04-24T05:53:16.971Z,5.50
2018-04-24T05:54:16.896Z,5.30
2018-04-24T05:55:16.820Z,5.50
2018-04-24T05:56:16.745Z,5.20
2018-04-24T05:57:16.670Z,5.80
2018-04-24T05:58:16.597Z,6.10
2018-04-24T05:59:16.536Z,6.10
2018-04-24T06:00:16.450Z,6.30
2018-04-24T06:01:16.375Z,5.90
2018-04-24T06:02:16.301Z,6.00
2018-04-24T06:03:16.229Z,6.20
2018-04-24T06:04:16.153Z,5.90
2018-04-24T06:05:16.079Z,5.80
2018-04-24T06:06:16.004Z,5.70
2018-04-24T06:07:15.931Z,6.00
2018-04-24T06:08:15.908Z,5.50
2018-04-24T06:09:15.782Z,5.80
2018-04-24T06:10:15.709Z,5.80
2018-04-24T06:11:15.637Z,5.60
2018-04-24T06:12:15.563Z,6.00
2018-04-24T06:13:15.489Z,6.10
2018-04-24T06:14:15.415Z,5.70
2018-04-24T06:15:15.342Z,5.40
2018-04-24T06:16:15.268Z,5.60
2018-04-24T06:17:15.193Z,6.00
2018-04-24T06:18:15.120Z,5.60
2018-04-24T06:19:15.047Z,5.70
2018-04-24T06:20:14.975Z,5.50
2018-04-24T06:21:14.899Z,5.50
2018-04-24T06:22:14.829Z,5.50
2018-04-24T06:23:14.753Z,5.50
2018-04-24T06:24:14.680Z,5.90
2018-04-24T06:25:14.608Z,5.30
2018-04-24T06:26:14.533Z,5.70
2018-04-24T06:27:14.463Z,5.40
2018-04-24T06:28:14.386Z,5.20
2018-04-24T06:29:14.321Z,5.10
2018-04-24T06:30:14.239Z,5.20
2018-04-24T06:31:14.166Z,5.70
2018-04-24T06:32:14.094Z,5.30
2018-04-24T06:33:14.019Z,5.20
2018-04-24T06:34:13.948Z,5.00
2018-04-24T06:35:13.874Z,5.50
2018-04-24T06:36:13.801Z,5.00
2018-04-24T06:37:13.727Z,5.70
2018-04-24T06:38:13.653Z,5.30
2018-04-24T06:39:13.581Z,4.90
2018-04-24T06:40:13.508Z,5.20
2018-04-24T06:41:13.434Z,5.20
2018-04-24T06:42:13.371Z,5.50
2018-04-24T06:43:13.290Z,5.00
2018-04-24T06:44:13.217Z,4.70
2018-04-24T06:45:13.144Z,4.90
2018-04-24T06:46:13.069Z,4.80
2018-04-24T06:47:12.996Z,4.90
2018-04-24T06:48:12.924Z,4.90
2018-04-24T06:49:12.849Z,4.90
2018-04-24T06:50:12.778Z,4.50
2018-04-24T06:51:12.704Z,5.00
2018-04-24T06:52:12.631Z,4.60
2018-04-24T06:53:12.559Z,4.60
2018-04-24T06:54:12.490Z,4.40
2018-04-24T06:55:12.412Z,5.00
2018-04-24T06:56:12.340Z,4.90
2018-04-24T06:57:12.268Z,4.40
2018-04-24T06:58:12.194Z,4.70
2018-04-24T06:59:12.122Z,4.40
2018-04-24T07:00:12.050Z,4.80
2018-04-24T07:01:11.979Z,4.60
2018-04-24T07:02:11.905Z,4.70
2018-04-24T07:03:11.830Z,4.80
2018-04-24T07:04:11.758Z,5.10
2018-04-24T07:05:11.687Z,5.00
2018-04-24T07:06:11.612Z,5.20
2018-04-24T07:07:11.541Z,4.80
2018-04-24T07:08:11.469Z,5.50
2018-04-24T07:09:11.394Z,5.10
2018-04-24T07:10:11.322Z,4.30
2018-04-24T07:11:11.249Z,4.60
2018-04-24T07:12:11.179Z,4.70
2018-04-24T07:13:11.106Z,4.90
2018-04-24T07:14:11.032Z,5.00
2018-04-24T07:15:10.961Z,4.60
2018-04-24T07:16:10.888Z,5.10
2018-04-24T07:17:10.815Z,5.10
2018-04-24T07:18:10.742Z,5.00
2018-04-24T07:19:10.670Z,5.10
2018-04-24T07:20:10.598Z,4.80
2018-04-24T07:21:10.525Z,4.50
2018-04-24T07:22:10.456Z,4.50
2018-04-24T07:23:10.388Z,5.40
2018-04-24T07:24:10.312Z,5.20
2018-04-24T07:25:10.234Z,4.80
2018-04-24T07:26:10.161Z,4.60
2018-04-24T07:27:10.162Z,5.40
2018-04-24T07:28:10.017Z,5.50
2018-04-24T07:29:09.945Z,5.10
2018-04-24T07:30:09.873Z,5.50
2018-04-24T07:31:09.801Z,4.90
2018-04-24T07:32:09.728Z,4.80
2018-04-24T07:33:09.656Z,4.80
2018-04-24T07:34:09.584Z,4.90
2018-04-24T07:35:09.512Z,5.00
2018-04-24T07:36:09.442Z,4.80
2018-04-24T07:37:09.370Z,5.00
2018-04-24T07:38:09.294Z,5.20
2018-04-24T07:39:09.222Z,4.80
2018-04-24T07:40:09.151Z,5.00
2018-04-24T07:41:09.156Z,5.00
2018-04-24T07:42:09.006Z,5.10
2018-04-24T07:43:08.934Z,5.10
2018-04-24T07:44:08.862Z,4.50
2018-04-24T07:45:08.789Z,5.50
2018-04-24T07:46:08.718Z,4.40
2018-04-24T07:47:08.647Z,5.00
2018-04-24T07:48:08.575Z,4.60
2018-04-24T07:49:08.501Z,4.90
2018-04-24T07:50:08.430Z,5.10
2018-04-24T07:51:08.357Z,4.50
2018-04-24T07:52:08.288Z,4.50
2018-04-24T07:53:08.215Z,5.20
2018-04-24T07:54:08.147Z,4.80
2018-04-24T07:55:08.070Z,3.80
2018-04-24T07:56:08.002Z,5.10
2018-04-24T07:57:07.927Z,5.30
2018-04-24T07:58:07.854Z,5.00
2018-04-24T07:59:07.784Z,5.00
2018-04-24T08:00:07.712Z,4.00
2018-04-24T08:01:07.639Z,4.10
2018-04-24T08:02:07.570Z,4.30
2018-04-24T08:03:07.496Z,2.90
2018-04-24T08:04:07.426Z,2.80
2018-04-24T08:05:07.356Z,3.20
2018-04-24T08:06:07.280Z,3.10
2018-04-24T08:07:07.211Z,3.20
2018-04-24T08:08:07.152Z,2.90
2018-04-24T08:09:07.067Z,3.00
2018-04-24T08:10:06.996Z,3.10
2018-04-24T08:11:06.925Z,3.00
2018-04-24T08:12:06.853Z,3.00
2018-04-24T08:13:06.782Z,3.10
2018-04-24T08:14:06.709Z,3.20
2018-04-24T08:15:06.643Z,3.20
2018-04-24T08:16:06.572Z,3.20
2018-04-24T08:17:06.496Z,3.10
2018-04-24T08:18:06.425Z,3.20
2018-04-24T08:19:06.353Z,3.00
2018-04-24T08:20:06.282Z,3.30
2018-04-24T08:21:06.211Z,2.90
2018-04-24T08:22:06.139Z,3.30
2018-04-24T08:23:06.068Z,3.30
2018-04-24T08:24:05.996Z,3.40
2018-04-24T08:25:06.000Z,3.30
2018-04-24T08:26:05.854Z,2.90
2018-04-24T08:27:05.783Z,3.70
2018-04-24T08:28:05.712Z,2.90
2018-04-24T08:29:05.640Z,3.20
2018-04-24T08:30:05.570Z,3.40
2018-04-24T08:31:05.497Z,3.40
2018-04-24T08:32:05.426Z,3.30
2018-04-24T08:33:05.355Z,3.20
2018-04-24T08:34:05.284Z,3.30
2018-04-24T08:35:05.212Z,3.10
2018-04-24T08:36:05.154Z,3.10
2018-04-24T08:37:05.070Z,3.40
2018-04-24T08:38:04.998Z,3.60
2018-04-24T08:39:04.973Z,3.70
2018-04-24T08:40:04.860Z,3.70
2018-04-24T08:41:04.791Z,3.40
2018-04-24T08:42:04.715Z,3.70
2018-04-24T08:43:04.643Z,4.40
2018-04-24T08:44:04.571Z,3.80
2018-04-24T08:45:04.500Z,3.90
2018-04-24T08:46:04.437Z,3.70
2018-04-24T08:47:04.362Z,3.70
2018-04-24T08:48:04.285Z,3.70
2018-04-24T08:49:04.218Z,4.00
2018-04-24T08:50:04.146Z,3.90
2018-04-24T08:51:04.072Z,4.60
2018-04-24T08:52:04.000Z,3.90
2018-04-24T08:53:03.927Z,3.90
2018-04-24T08:54:03.856Z,4.10
2018-04-24T08:55:03.789Z,4.00
2018-04-24T08:56:04.017Z,4.00
2018-04-24T08:57:03.641Z,4.10
2018-04-24T08:58:03.571Z,4.20
2018-04-24T08:59:03.500Z,3.90
2018-04-24T09:00:03.428Z,3.90
2018-04-24T09:01:03.356Z,4.00
2018-04-24T09:02:03.339Z,4.00
2018-04-24T09:03:03.213Z,4.00
2018-04-24T09:04:03.141Z,3.30
2018-04-24T09:05:03.068Z,3.90
2018-04-24T09:06:02.997Z,4.10
2018-04-24T09:07:02.925Z,4.00
2018-04-24T09:08:02.854Z,3.80
2018-04-24T09:09:02.783Z,3.80
2018-04-24T09:10:02.711Z,4.00
2018-04-24T09:11:02.638Z,4.00
2018-04-24T09:12:02.568Z,3.60
2018-04-24T09:13:02.495Z,3.40
2018-04-24T09:14:02.502Z,3.90
2018-04-24T09:15:02.352Z,3.80
2018-04-24T09:16:02.282Z,3.80
2018-04-24T09:17:02.211Z,3.70
2018-04-24T09:18:02.139Z,3.80
2018-04-24T09:19:02.069Z,4.00
2018-04-24T09:20:01.997Z,3.90
2018-04-24T09:21:01.926Z,3.50
2018-04-24T09:22:01.856Z,3.90
2018-04-24T09:23:01.785Z,3.90
2018-04-24T09:24:01.712Z,3.60
2018-04-24T09:25:01.640Z,3.70
2018-04-24T09:26:01.574Z,3.50
2018-04-24T09:27:01.524Z,3.90
2018-04-24T09:28:01.427Z,3.40
2018-04-24T09:29:01.355Z,4.30
2018-04-24T09:30:01.284Z,3.50
2018-04-24T09:31:01.213Z,3.60
2018-04-24T09:32:01.142Z,3.40
2018-04-24T09:33:01.073Z,3.40
2018-04-24T09:34:00.998Z,3.90
2018-04-24T09:35:01.007Z,3.90
2018-04-24T09:36:00.857Z,3.50
2018-04-24T09:37:00.786Z,3.10
2018-04-24T09:38:00.715Z,3.80
2018-04-24T09:39:00.661Z,3.50
2018-04-24T09:40:00.572Z,3.00
2018-04-24T09:41:00.501Z,3.00
2018-04-24T09:42:00.430Z,3.20
2018-04-24T09:43:00.359Z,2.80
2018-04-24T09:44:00.367Z,3.20
2018-04-24T09:45:00.218Z,3.00
2018-04-24T09:46:00.180Z,3.30
2018-04-24T09:47:00.078Z,3.60
2018-04-24T09:48:00.006Z,3.60
2018-04-24T09:49:00.022Z,3.10
2018-04-24T09:49:59.864Z,3.30
2018-04-24T09:50:59.794Z,3.50
2018-04-24T09:51:59.723Z,3.40
2018-04-24T09:52:59.656Z,3.40
2018-04-24T09:53:59.581Z,3.30
2018-04-24T09:54:59.509Z,3.50
2018-04-24T09:55:59.440Z,3.50
2018-04-24T09:56:59.368Z,3.00
2018-04-24T09:57:59.299Z,3.10
2018-04-24T09:58:59.228Z,2.90
2018-04-24T09:59:59.157Z,2.80
2018-04-24T10:00:59.087Z,2.90
2018-04-24T10:01:59.017Z,3.10
2018-04-24T10:02:58.948Z,3.00
2018-04-24T10:03:58.879Z,3.50
2018-04-24T10:04:58.805Z,2.70
2018-04-24T10:05:58.735Z,2.50
2018-04-24T10:06:58.665Z,2.60
2018-04-24T10:07:58.596Z,2.80
2018-04-24T10:08:58.524Z,3.00
2018-04-24T10:09:58.455Z,3.00
2018-04-24T10:10:58.386Z,3.30
2018-04-24T10:11:58.314Z,2.80
2018-04-24T10:12:58.246Z,3.30
2018-04-24T10:13:58.173Z,2.90
2018-04-24T10:14:58.107Z,3.00
2018-04-24T10:15:58.034Z,2.90
2018-04-24T10:16:57.965Z,2.90
2018-04-24T10:17:57.894Z,3.00
2018-04-24T10:18:57.824Z,2.90
2018-04-24T10:19:57.754Z,3.00
2018-04-24T10:20:57.683Z,2.60
2018-04-24T10:21:57.614Z,2.90
2018-04-24T10:22:57.543Z,2.80
2018-04-24T10:23:57.474Z,2.80
2018-04-24T10:24:57.403Z,3.00
2018-04-24T10:25:57.349Z,2.90
2018-04-24T10:26:57.268Z,3.10
2018-04-24T10:27:57.196Z,2.80
2018-04-24T10:28:57.125Z,2.70
2018-04-24T10:29:57.055Z,2.80
2018-04-24T10:30:56.986Z,3.30
2018-04-24T10:31:56.916Z,3.20
2018-04-24T10:32:56.846Z,3.10
2018-04-24T10:33:56.780Z,3.00
2018-04-24T10:34:56.708Z,2.90
2018-04-24T10:35:56.638Z,2.80
2018-04-24T10:36:56.568Z,2.90
2018-04-24T10:37:56.497Z,3.00
2018-04-24T10:38:56.430Z,2.70
2018-04-24T10:39:56.359Z,2.80
2018-04-24T10:40:56.291Z,3.30
2018-04-24T10:41:56.221Z,2.80
2018-04-24T10:42:56.152Z,3.00
2018-04-24T10:43:56.251Z,2.70
2018-04-24T10:44:56.012Z,2.90
2018-04-24T10:45:55.944Z,3.00
2018-04-24T10:46:55.872Z,2.90
2018-04-24T10:47:55.822Z,2.80
2018-04-24T10:48:55.733Z,3.00
2018-04-24T10:49:55.664Z,3.30
2018-04-24T10:50:55.596Z,3.00
2018-04-24T10:51:55.527Z,2.70
2018-04-24T10:52:55.456Z,2.60
2018-04-24T10:53:55.388Z,3.20
2018-04-24T10:54:55.319Z,2.90
2018-04-24T10:55:55.293Z,2.80
2018-04-24T10:56:55.178Z,2.60
2018-04-24T10:57:55.110Z,2.70
2018-04-24T10:58:55.042Z,2.60
2018-04-24T10:59:54.971Z,2.70
2018-04-24T11:00:54.903Z,2.80
2018-04-24T11:01:54.834Z,2.50
2018-04-24T11:02:54.764Z,2.30
2018-04-24T11:03:54.694Z,2.80
2018-04-24T11:04:54.626Z,2.20
2018-04-24T11:05:54.556Z,2.30
2018-04-24T11:06:54.486Z,2.60
2018-04-24T11:07:54.418Z,2.20
2018-04-24T11:08:54.348Z,2.80
2018-04-24T11:09:54.282Z,2.50
2018-04-24T11:10:54.279Z,2.50
2018-04-24T11:11:54.143Z,2.40
2018-04-24T11:12:54.071Z,2.40
2018-04-24T11:13:54.003Z,2.70
2018-04-24T11:14:53.934Z,2.40
2018-04-24T11:15:53.865Z,2.20
2018-04-24T11:16:53.796Z,2.50
2018-04-24T11:17:53.727Z,2.30
2018-04-24T11:18:53.658Z,2.30
2018-04-24T11:19:53.590Z,2.40
2018-04-24T11:20:53.519Z,2.40
2018-04-24T11:21:53.452Z,2.20
2018-04-24T11:22:53.383Z,2.60
2018-04-24T11:23:53.316Z,2.30
2018-04-24T11:24:53.246Z,2.40
2018-04-24T11:25:53.176Z,2.20
2018-04-24T11:26:53.110Z,2.10
2018-04-24T11:27:53.042Z,2.30
2018-04-24T11:28:52.974Z,2.10
2018-04-24T11:29:52.905Z,2.20
2018-04-24T11:30:52.840Z,2.20
2018-04-24T11:31:52.770Z,2.10
2018-04-24T11:32:52.705Z,2.30
2018-04-24T11:33:52.633Z,2.30
2018-04-24T11:34:52.570Z,2.10
2018-04-24T11:35:52.499Z,1.90
2018-04-24T11:36:52.429Z,2.30
2018-04-24T11:37:52.361Z,2.20
2018-04-24T11:38:52.293Z,2.20
2018-04-24T11:39:52.229Z,1.70
2018-04-24T11:40:52.157Z,2.30
2018-04-24T11:41:52.090Z,1.90
2018-04-24T11:42:52.022Z,2.40
2018-04-24T11:43:52.040Z,2.00
2018-04-24T11:44:51.888Z,2.30
2018-04-24T11:45:51.820Z,1.80
2018-04-24T11:46:51.753Z,2.10
2018-04-24T11:47:51.687Z,2.10
2018-04-24T11:48:51.617Z,2.30
2018-04-24T11:49:51.550Z,1.90
2018-04-24T11:50:51.483Z,2.10
2018-04-24T11:51:51.415Z,1.80
2018-04-24T11:52:51.350Z,1.90
2018-04-24T11:53:51.281Z,2.10
2018-04-24T11:54:51.214Z,2.10
2018-04-24T11:55:51.148Z,2.20
2018-04-24T11:56:51.084Z,2.30
2018-04-24T11:57:51.015Z,2.00
2018-04-24T11:58:50.948Z,2.00
2018-04-24T11:59:50.882Z,2.10
2018-04-24T12:00:50.816Z,2.00
2018-04-24T12:01:50.754Z,2.00
2018-04-24T12:02:50.755Z,1.90
2018-04-24T12:03:50.619Z,2.00
2018-04-24T12:04:50.553Z,2.10
2018-04-24T12:05:50.487Z,1.90
2018-04-24T12:06:50.421Z,2.00
2018-04-24T12:07:50.357Z,2.10
2018-04-24T12:08:50.291Z,2.10
2018-04-24T12:09:50.226Z,2.40
2018-04-24T12:10:50.160Z,2.10
2018-04-24T12:11:50.096Z,2.10
2018-04-24T12:12:50.032Z,2.00
2018-04-24T12:13:49.965Z,1.70
2018-04-24T12:14:49.898Z,1.90
2018-04-24T12:15:50.008Z,1.90
2018-04-24T12:16:49.768Z,2.00
2018-04-24T12:17:49.702Z,2.00
2018-04-24T12:18:49.636Z,2.10
2018-04-24T12:19:49.570Z,2.30
2018-04-24T12:20:49.505Z,2.10
2018-04-24T12:21:49.440Z,2.20
2018-04-24T12:22:49.375Z,2.40
2018-04-24T12:23:49.309Z,2.00
2018-04-24T12:24:49.242Z,2.20
2018-04-24T12:25:49.184Z,2.20
2018-04-24T12:26:49.113Z,2.00
2018-04-24T12:27:49.047Z,2.00
2018-04-24T12:28:48.981Z,2.10
2018-04-24T12:29:48.917Z,2.20
2018-04-24T12:30:48.859Z,2.20
2018-04-24T12:31:48.786Z,2.00
2018-04-24T12:32:48.721Z,2.00
2018-04-24T12:33:48.656Z,2.10
2018-04-24T12:34:48.591Z,2.00
2018-04-24T12:35:48.526Z,2.00
2018-04-24T12:36:48.462Z,1.90
2018-04-24T12:37:48.398Z,1.90
2018-04-24T12:38:48.386Z,1.70
2018-04-24T12:39:48.268Z,1.80
2018-04-24T12:40:48.202Z,1.90
2018-04-24T12:41:48.140Z,1.90
2018-04-24T12:42:48.075Z,1.70
2018-04-24T12:43:48.012Z,1.60
2018-04-24T12:44:47.947Z,1.60
2018-04-24T12:45:47.884Z,1.60
2018-04-24T12:46:47.820Z,1.70
2018-04-24T12:47:47.758Z,1.70
2018-04-24T12:48:47.691Z,1.50
2018-04-24T12:49:47.628Z,1.80
2018-04-24T12:50:47.567Z,1.60
2018-04-24T12:51:47.557Z,1.70
2018-04-24T12:52:47.438Z,1.70
2018-04-24T12:53:47.376Z,1.70
2018-04-24T12:54:47.314Z,1.70
2018-04-24T12:55:47.252Z,1.60
2018-04-24T12:56:47.189Z,1.70
2018-04-24T12:57:47.178Z,1.90
2018-04-24T12:58:47.065Z,1.80
2018-04-24T12:59:47.004Z,1.70
2018-04-24T13:00:46.940Z,1.60
2018-04-24T13:01:46.880Z,2.00
2018-04-24T13:02:46.818Z,1.70
2018-04-24T13:03:46.846Z,1.70
2018-04-24T13:04:46.700Z,1.70
2018-04-24T13:05:46.634Z,1.70
2018-04-24T13:06:46.573Z,1.70
2018-04-24T13:07:46.514Z,1.90
2018-04-24T13:08:46.452Z,1.70
2018-04-24T13:09:46.478Z,1.80
2018-04-24T13:10:46.331Z,1.70
2018-04-24T13:11:46.272Z,1.60
2018-04-24T13:12:46.215Z,1.90
2018-04-24T13:13:46.152Z,1.60
2018-04-24T13:14:46.093Z,1.80
2018-04-24T13:15:46.033Z,1.40
2018-04-24T13:16:45.973Z,1.40
2018-04-24T13:17:45.914Z,1.60